sensor_id;sensor_type;location;lat;lon;timestamp;temperature;humidity
4602;DHT22;2313;48.552;9.370;2023-04-07T00:01:24;5.80;99.90
4602;DHT22;2313;48.552;9.370;2023-04-07T00:03:50;5.80;99.90
4602;DHT22;2313;48.552;9.370;2023-04-07T00:06:16;5.70;99.90
4602;DHT22;2313;48.552;9.370;2023-04-07T00:08:42;5.80;99.90
4602;DHT22;2313;48.552;9.370;2023-04-07T00:11:07;5.70;99.90
4602;DHT22;2313;48.552;9.370;2023-04-07T00:13:33;5.70;99.90
4602;DHT22;2313;48.552;9.370;2023-04-07T00:15:59;5.70;99.90
4602;DHT22;2313;48.552;9.370;2023-04-07T00:18:24;5.60;99.90
4602;DHT22;2313;48.552;9.370;2023-04-07T00:20:50;5.70;99.90
4602;DHT22;2313;48.552;9.370;2023-04-07T00:23:16;5.70;99.90
4602;DHT22;2313;48.552;9.370;2023-04-07T00:25:41;5.70;99.90
4602;DHT22;2313;48.552;9.370;2023-04-07T00:28:07;5.70;99.90
4602;DHT22;2313;48.552;9.370;2023-04-07T00:30:32;5.70;99.90
4602;DHT22;2313;48.552;9.370;2023-04-07T00:32:58;5.70;99.90
4602;DHT22;2313;48.552;9.370;2023-04-07T00:35:24;5.70;99.90
4602;DHT22;2313;48.552;9.370;2023-04-07T00:37:49;5.70;99.90
4602;DHT22;2313;48.552;9.370;2023-04-07T00:40:16;5.60;99.90
4602;DHT22;2313;48.552;9.370;2023-04-07T00:42:42;5.60;99.90
4602;DHT22;2313;48.552;9.370;2023-04-07T00:45:08;5.60;99.90
4602;DHT22;2313;48.552;9.370;2023-04-07T00:47:34;5.60;99.90
4602;DHT22;2313;48.552;9.370;2023-04-07T00:50:05;5.60;99.90
4602;DHT22;2313;48.552;9.370;2023-04-07T00:52:32;5.60;99.90
4602;DHT22;2313;48.552;9.370;2023-04-07T00:54:58;5.60;99.90
4602;DHT22;2313;48.552;9.370;2023-04-07T00:57:24;5.60;99.90
4602;DHT22;2313;48.552;9.370;2023-04-07T00:59:51;5.60;99.90
4602;DHT22;2313;48.552;9.370;2023-04-07T01:02:34;5.50;99.90
4602;DHT22;2313;48.552;9.370;2023-04-07T01:05:08;5.60;99.90
4602;DHT22;2313;48.552;9.370;2023-04-07T01:10:36;5.60;99.90
4602;DHT22;2313;48.552;9.370;2023-04-07T01:13:21;5.70;99.90
4602;DHT22;2313;48.552;9.370;2023-04-07T01:15:50;5.70;99.90
4602;DHT22;2313;48.552;9.370;2023-04-07T01:18:21;5.60;99.90
4602;DHT22;2313;48.552;9.370;2023-04-07T01:20:50;5.70;99.90
4602;DHT22;2313;48.552;9.370;2023-04-07T01:23:24;5.70;99.90
4602;DHT22;2313;48.552;9.370;2023-04-07T01:26:12;5.70;99.90
4602;DHT22;2313;48.552;9.370;2023-04-07T01:31:24;5.70;99.90
4602;DHT22;2313;48.552;9.370;2023-04-07T01:33:51;5.70;99.90
4602;DHT22;2313;48.552;9.370;2023-04-07T01:36:18;5.70;99.90
4602;DHT22;2313;48.552;9.370;2023-04-07T01:38:45;5.70;99.90
4602;DHT22;2313;48.552;9.370;2023-04-07T01:41:14;5.80;99.90
4602;DHT22;2313;48.552;9.370;2023-04-07T01:43:40;5.80;99.90
4602;DHT22;2313;48.552;9.370;2023-04-07T01:46:06;5.90;99.90
4602;DHT22;2313;48.552;9.370;2023-04-07T01:48:33;5.80;99.90
4602;DHT22;2313;48.552;9.370;2023-04-07T01:50:59;5.80;99.90
4602;DHT22;2313;48.552;9.370;2023-04-07T01:53:25;5.80;99.90
4602;DHT22;2313;48.552;9.370;2023-04-07T01:55:52;5.90;99.90
4602;DHT22;2313;48.552;9.370;2023-04-07T01:58:18;5.90;99.90
4602;DHT22;2313;48.552;9.370;2023-04-07T02:00:44;6.00;99.90
4602;DHT22;2313;48.552;9.370;2023-04-07T02:03:14;6.00;99.90
4602;DHT22;2313;48.552;9.370;2023-04-07T02:05:46;6.00;99.90
4602;DHT22;2313;48.552;9.370;2023-04-07T02:08:15;6.00;99.90
4602;DHT22;2313;48.552;9.370;2023-04-07T02:10:42;6.00;99.90
4602;DHT22;2313;48.552;9.370;2023-04-07T02:13:14;6.00;99.90
4602;DHT22;2313;48.552;9.370;2023-04-07T02:15:40;6.10;99.90
4602;DHT22;2313;48.552;9.370;2023-04-07T02:18:07;6.10;99.90
4602;DHT22;2313;48.552;9.370;2023-04-07T02:20:35;6.10;99.90
4602;DHT22;2313;48.552;9.370;2023-04-07T02:23:02;6.00;99.90
4602;DHT22;2313;48.552;9.370;2023-04-07T02:25:29;6.10;99.90
4602;DHT22;2313;48.552;9.370;2023-04-07T02:27:58;6.10;99.90
4602;DHT22;2313;48.552;9.370;2023-04-07T02:30:24;6.10;99.90
4602;DHT22;2313;48.552;9.370;2023-04-07T02:32:51;6.10;99.90
4602;DHT22;2313;48.552;9.370;2023-04-07T02:35:17;6.10;99.90
4602;DHT22;2313;48.552;9.370;2023-04-07T02:37:43;6.10;99.90
4602;DHT22;2313;48.552;9.370;2023-04-07T02:40:09;6.10;99.90
4602;DHT22;2313;48.552;9.370;2023-04-07T02:42:35;6.20;99.90
4602;DHT22;2313;48.552;9.370;2023-04-07T02:45:02;6.20;99.90
4602;DHT22;2313;48.552;9.370;2023-04-07T02:47:27;6.20;99.90
4602;DHT22;2313;48.552;9.370;2023-04-07T02:49:53;6.20;99.90
4602;DHT22;2313;48.552;9.370;2023-04-07T02:52:19;6.20;99.90
4602;DHT22;2313;48.552;9.370;2023-04-07T02:54:44;6.20;99.90
4602;DHT22;2313;48.552;9.370;2023-04-07T02:57:10;6.30;99.90
4602;DHT22;2313;48.552;9.370;2023-04-07T02:59:36;6.30;99.90
4602;DHT22;2313;48.552;9.370;2023-04-07T03:02:01;6.30;99.90
4602;DHT22;2313;48.552;9.370;2023-04-07T03:04:27;6.30;99.90
4602;DHT22;2313;48.552;9.370;2023-04-07T03:06:52;6.20;99.90
4602;DHT22;2313;48.552;9.370;2023-04-07T03:09:18;6.20;99.90
4602;DHT22;2313;48.552;9.370;2023-04-07T03:11:44;6.20;99.90
4602;DHT22;2313;48.552;9.370;2023-04-07T03:14:09;6.20;99.90
4602;DHT22;2313;48.552;9.370;2023-04-07T03:16:35;6.20;99.90
4602;DHT22;2313;48.552;9.370;2023-04-07T03:19:01;6.20;99.90
4602;DHT22;2313;48.552;9.370;2023-04-07T03:21:26;6.20;99.90
4602;DHT22;2313;48.552;9.370;2023-04-07T03:23:53;6.20;99.90
4602;DHT22;2313;48.552;9.370;2023-04-07T03:26:19;6.20;99.90
4602;DHT22;2313;48.552;9.370;2023-04-07T03:28:46;6.20;99.90
4602;DHT22;2313;48.552;9.370;2023-04-07T03:31:11;6.20;99.90
4602;DHT22;2313;48.552;9.370;2023-04-07T03:33:37;6.20;99.90
4602;DHT22;2313;48.552;9.370;2023-04-07T03:36:02;6.20;99.90
4602;DHT22;2313;48.552;9.370;2023-04-07T03:38:28;6.30;99.90
4602;DHT22;2313;48.552;9.370;2023-04-07T03:40:54;6.30;99.90
4602;DHT22;2313;48.552;9.370;2023-04-07T03:43:19;6.20;99.90
4602;DHT22;2313;48.552;9.370;2023-04-07T03:45:46;6.20;99.90
4602;DHT22;2313;48.552;9.370;2023-04-07T03:48:11;6.10;99.90
4602;DHT22;2313;48.552;9.370;2023-04-07T03:50:40;6.10;99.90
4602;DHT22;2313;48.552;9.370;2023-04-07T03:53:06;6.10;99.90
4602;DHT22;2313;48.552;9.370;2023-04-07T03:55:33;6.10;99.90
4602;DHT22;2313;48.552;9.370;2023-04-07T03:57:58;6.10;99.90
4602;DHT22;2313;48.552;9.370;2023-04-07T04:00:24;6.10;99.90
4602;DHT22;2313;48.552;9.370;2023-04-07T04:02:51;6.10;99.90
4602;DHT22;2313;48.552;9.370;2023-04-07T04:05:17;6.00;99.90
4602;DHT22;2313;48.552;9.370;2023-04-07T04:07:42;6.00;99.90
4602;DHT22;2313;48.552;9.370;2023-04-07T04:10:08;6.00;99.90
4602;DHT22;2313;48.552;9.370;2023-04-07T04:12:34;6.00;99.90
4602;DHT22;2313;48.552;9.370;2023-04-07T04:14:59;6.10;99.90
4602;DHT22;2313;48.552;9.370;2023-04-07T04:17:25;6.20;99.90
4602;DHT22;2313;48.552;9.370;2023-04-07T04:19:51;6.20;99.90
4602;DHT22;2313;48.552;9.370;2023-04-07T04:22:17;6.20;99.90
4602;DHT22;2313;48.552;9.370;2023-04-07T04:24:43;6.30;99.90
4602;DHT22;2313;48.552;9.370;2023-04-07T04:27:08;6.30;99.90
4602;DHT22;2313;48.552;9.370;2023-04-07T04:29:34;6.40;99.90
4602;DHT22;2313;48.552;9.370;2023-04-07T04:32:00;6.40;99.90
4602;DHT22;2313;48.552;9.370;2023-04-07T04:34:25;6.50;99.90
4602;DHT22;2313;48.552;9.370;2023-04-07T04:36:51;6.40;99.90
4602;DHT22;2313;48.552;9.370;2023-04-07T04:39:17;6.50;99.90
4602;DHT22;2313;48.552;9.370;2023-04-07T04:41:44;6.50;99.90
4602;DHT22;2313;48.552;9.370;2023-04-07T04:44:09;6.60;99.90
4602;DHT22;2313;48.552;9.370;2023-04-07T04:46:35;6.60;99.90
4602;DHT22;2313;48.552;9.370;2023-04-07T04:49:01;6.60;99.90
4602;DHT22;2313;48.552;9.370;2023-04-07T04:51:27;6.60;99.90
4602;DHT22;2313;48.552;9.370;2023-04-07T04:53:52;6.70;99.90
4602;DHT22;2313;48.552;9.370;2023-04-07T04:56:18;6.60;99.90
4602;DHT22;2313;48.552;9.370;2023-04-07T04:58:43;6.60;99.90
4602;DHT22;2313;48.552;9.370;2023-04-07T05:01:12;6.80;99.90
4602;DHT22;2313;48.552;9.370;2023-04-07T05:03:38;6.80;99.90
4602;DHT22;2313;48.552;9.370;2023-04-07T05:06:04;6.80;99.90
4602;DHT22;2313;48.552;9.370;2023-04-07T05:08:30;6.90;99.90
4602;DHT22;2313;48.552;9.370;2023-04-07T05:10:56;6.80;99.90
4602;DHT22;2313;48.552;9.370;2023-04-07T05:13:22;6.80;99.90
4602;DHT22;2313;48.552;9.370;2023-04-07T05:15:47;6.80;99.90
4602;DHT22;2313;48.552;9.370;2023-04-07T05:18:13;6.80;99.90
4602;DHT22;2313;48.552;9.370;2023-04-07T05:20:39;6.80;99.90
4602;DHT22;2313;48.552;9.370;2023-04-07T05:23:04;6.80;99.90
4602;DHT22;2313;48.552;9.370;2023-04-07T05:25:30;6.90;99.90
4602;DHT22;2313;48.552;9.370;2023-04-07T05:27:57;6.90;99.90
4602;DHT22;2313;48.552;9.370;2023-04-07T05:30:24;6.90;99.90
4602;DHT22;2313;48.552;9.370;2023-04-07T05:32:50;6.80;99.90
4602;DHT22;2313;48.552;9.370;2023-04-07T05:35:16;6.60;99.90
4602;DHT22;2313;48.552;9.370;2023-04-07T05:37:42;6.70;99.90
4602;DHT22;2313;48.552;9.370;2023-04-07T05:40:08;6.60;99.90
4602;DHT22;2313;48.552;9.370;2023-04-07T05:42:33;6.70;99.90
4602;DHT22;2313;48.552;9.370;2023-04-07T05:44:59;6.80;99.90
4602;DHT22;2313;48.552;9.370;2023-04-07T05:47:24;6.80;99.90
4602;DHT22;2313;48.552;9.370;2023-04-07T05:49:50;6.90;99.90
4602;DHT22;2313;48.552;9.370;2023-04-07T05:52:16;6.90;99.90
4602;DHT22;2313;48.552;9.370;2023-04-07T05:54:41;6.90;99.90
4602;DHT22;2313;48.552;9.370;2023-04-07T05:57:07;6.90;99.90
4602;DHT22;2313;48.552;9.370;2023-04-07T05:59:34;6.80;99.90
4602;DHT22;2313;48.552;9.370;2023-04-07T06:02:00;6.80;99.90
4602;DHT22;2313;48.552;9.370;2023-04-07T06:04:25;6.80;99.90
4602;DHT22;2313;48.552;9.370;2023-04-07T06:06:51;6.90;99.90
4602;DHT22;2313;48.552;9.370;2023-04-07T06:09:20;6.90;99.90
4602;DHT22;2313;48.552;9.370;2023-04-07T06:11:46;6.90;99.90
4602;DHT22;2313;48.552;9.370;2023-04-07T06:14:12;6.90;99.90
4602;DHT22;2313;48.552;9.370;2023-04-07T06:16:38;7.00;99.90
4602;DHT22;2313;48.552;9.370;2023-04-07T06:19:03;7.00;99.90
4602;DHT22;2313;48.552;9.370;2023-04-07T06:21:29;7.10;99.90
4602;DHT22;2313;48.552;9.370;2023-04-07T06:23:55;7.10;99.90
4602;DHT22;2313;48.552;9.370;2023-04-07T06:26:21;7.20;99.90
4602;DHT22;2313;48.552;9.370;2023-04-07T06:28:47;7.20;99.90
4602;DHT22;2313;48.552;9.370;2023-04-07T06:31:13;7.20;99.90
4602;DHT22;2313;48.552;9.370;2023-04-07T06:33:39;7.20;99.90
4602;DHT22;2313;48.552;9.370;2023-04-07T06:36:05;7.20;99.90
4602;DHT22;2313;48.552;9.370;2023-04-07T06:38:30;7.30;99.90
4602;DHT22;2313;48.552;9.370;2023-04-07T06:40:56;7.40;99.90
4602;DHT22;2313;48.552;9.370;2023-04-07T06:43:22;7.40;99.90
4602;DHT22;2313;48.552;9.370;2023-04-07T06:45:47;7.40;99.90
4602;DHT22;2313;48.552;9.370;2023-04-07T06:48:13;7.50;99.90
4602;DHT22;2313;48.552;9.370;2023-04-07T06:50:38;7.60;99.90
4602;DHT22;2313;48.552;9.370;2023-04-07T06:53:04;7.60;99.90
4602;DHT22;2313;48.552;9.370;2023-04-07T06:55:30;7.60;99.90
4602;DHT22;2313;48.552;9.370;2023-04-07T06:57:56;7.60;99.90
4602;DHT22;2313;48.552;9.370;2023-04-07T07:00:21;7.70;99.90
4602;DHT22;2313;48.552;9.370;2023-04-07T07:02:48;7.70;99.90
4602;DHT22;2313;48.552;9.370;2023-04-07T07:05:14;7.70;99.90
4602;DHT22;2313;48.552;9.370;2023-04-07T07:07:39;7.80;99.90
4602;DHT22;2313;48.552;9.370;2023-04-07T07:10:08;7.80;99.90
4602;DHT22;2313;48.552;9.370;2023-04-07T07:12:37;8.00;99.90
4602;DHT22;2313;48.552;9.370;2023-04-07T07:15:03;8.20;99.90
4602;DHT22;2313;48.552;9.370;2023-04-07T07:17:29;8.30;99.90
4602;DHT22;2313;48.552;9.370;2023-04-07T07:19:54;8.40;99.90
4602;DHT22;2313;48.552;9.370;2023-04-07T07:22:20;8.50;99.90
4602;DHT22;2313;48.552;9.370;2023-04-07T07:24:46;8.60;99.90
4602;DHT22;2313;48.552;9.370;2023-04-07T07:27:11;8.70;99.90
4602;DHT22;2313;48.552;9.370;2023-04-07T07:29:37;8.80;99.90
4602;DHT22;2313;48.552;9.370;2023-04-07T07:32:02;8.80;99.90
4602;DHT22;2313;48.552;9.370;2023-04-07T07:34:28;8.90;99.90
4602;DHT22;2313;48.552;9.370;2023-04-07T07:36:54;8.90;99.90
4602;DHT22;2313;48.552;9.370;2023-04-07T07:39:20;9.00;99.90
4602;DHT22;2313;48.552;9.370;2023-04-07T07:41:45;9.00;99.90
4602;DHT22;2313;48.552;9.370;2023-04-07T07:44:11;9.10;99.90
4602;DHT22;2313;48.552;9.370;2023-04-07T07:46:37;9.10;99.90
4602;DHT22;2313;48.552;9.370;2023-04-07T07:49:02;9.20;99.90
4602;DHT22;2313;48.552;9.370;2023-04-07T07:51:30;9.20;99.90
4602;DHT22;2313;48.552;9.370;2023-04-07T07:53:55;9.30;99.90
4602;DHT22;2313;48.552;9.370;2023-04-07T07:56:21;9.40;99.90
4602;DHT22;2313;48.552;9.370;2023-04-07T07:58:47;9.60;99.90
4602;DHT22;2313;48.552;9.370;2023-04-07T08:01:12;9.70;99.90
4602;DHT22;2313;48.552;9.370;2023-04-07T08:03:38;9.70;99.90
4602;DHT22;2313;48.552;9.370;2023-04-07T08:06:03;9.90;99.90
4602;DHT22;2313;48.552;9.370;2023-04-07T08:08:29;10.00;99.90
4602;DHT22;2313;48.552;9.370;2023-04-07T08:10:55;10.10;99.90
4602;DHT22;2313;48.552;9.370;2023-04-07T08:13:21;10.30;99.90
4602;DHT22;2313;48.552;9.370;2023-04-07T08:15:46;10.30;99.90
4602;DHT22;2313;48.552;9.370;2023-04-07T08:18:12;10.30;99.90
4602;DHT22;2313;48.552;9.370;2023-04-07T08:20:37;10.40;99.90
4602;DHT22;2313;48.552;9.370;2023-04-07T08:23:03;10.50;99.90
4602;DHT22;2313;48.552;9.370;2023-04-07T08:25:29;10.60;99.90
4602;DHT22;2313;48.552;9.370;2023-04-07T08:27:55;10.60;99.90
4602;DHT22;2313;48.552;9.370;2023-04-07T08:30:20;10.50;99.90
4602;DHT22;2313;48.552;9.370;2023-04-07T08:32:46;10.70;99.90
4602;DHT22;2313;48.552;9.370;2023-04-07T08:35:12;10.80;99.90
4602;DHT22;2313;48.552;9.370;2023-04-07T08:37:38;10.90;99.90
4602;DHT22;2313;48.552;9.370;2023-04-07T08:40:05;11.00;99.90
4602;DHT22;2313;48.552;9.370;2023-04-07T08:42:32;11.00;99.90
4602;DHT22;2313;48.552;9.370;2023-04-07T08:45:04;11.10;99.90
4602;DHT22;2313;48.552;9.370;2023-04-07T08:47:31;11.10;99.90
4602;DHT22;2313;48.552;9.370;2023-04-07T08:50:01;11.30;99.90
4602;DHT22;2313;48.552;9.370;2023-04-07T08:52:48;11.20;99.90
4602;DHT22;2313;48.552;9.370;2023-04-07T08:55:14;11.50;99.90
4602;DHT22;2313;48.552;9.370;2023-04-07T08:57:41;11.50;99.90
4602;DHT22;2313;48.552;9.370;2023-04-07T09:00:08;11.80;99.90
4602;DHT22;2313;48.552;9.370;2023-04-07T09:02:36;12.00;99.90
4602;DHT22;2313;48.552;9.370;2023-04-07T09:05:03;12.20;98.90
4602;DHT22;2313;48.552;9.370;2023-04-07T09:07:33;12.30;99.00
4602;DHT22;2313;48.552;9.370;2023-04-07T09:09:59;12.10;97.10
4602;DHT22;2313;48.552;9.370;2023-04-07T09:12:30;12.30;97.80
4602;DHT22;2313;48.552;9.370;2023-04-07T09:14:56;12.50;96.40
4602;DHT22;2313;48.552;9.370;2023-04-07T09:17:24;13.10;95.20
4602;DHT22;2313;48.552;9.370;2023-04-07T09:19:52;14.40;95.50
4602;DHT22;2313;48.552;9.370;2023-04-07T09:22:53;15.50;94.00
4602;DHT22;2313;48.552;9.370;2023-04-07T09:25:23;16.60;91.60
4602;DHT22;2313;48.552;9.370;2023-04-07T09:28:02;16.50;90.00
4602;DHT22;2313;48.552;9.370;2023-04-07T09:30:30;16.80;87.00
4602;DHT22;2313;48.552;9.370;2023-04-07T09:32:57;17.30;84.10
4602;DHT22;2313;48.552;9.370;2023-04-07T09:35:23;17.10;81.00
4602;DHT22;2313;48.552;9.370;2023-04-07T09:38:06;17.50;81.90
4602;DHT22;2313;48.552;9.370;2023-04-07T09:40:33;17.80;80.30
4602;DHT22;2313;48.552;9.370;2023-04-07T09:43:02;18.70;85.40
4602;DHT22;2313;48.552;9.370;2023-04-07T09:45:30;18.80;75.40
4602;DHT22;2313;48.552;9.370;2023-04-07T09:48:17;18.30;72.50
4602;DHT22;2313;48.552;9.370;2023-04-07T09:50:43;18.50;71.50
4602;DHT22;2313;48.552;9.370;2023-04-07T09:53:14;18.30;68.60
4602;DHT22;2313;48.552;9.370;2023-04-07T09:55:40;18.50;71.30
4602;DHT22;2313;48.552;9.370;2023-04-07T09:58:07;18.80;71.80
4602;DHT22;2313;48.552;9.370;2023-04-07T10:00:34;19.00;69.70
4602;DHT22;2313;48.552;9.370;2023-04-07T10:03:00;19.00;71.50
4602;DHT22;2313;48.552;9.370;2023-04-07T10:05:26;19.20;71.20
4602;DHT22;2313;48.552;9.370;2023-04-07T10:07:52;19.50;71.80
4602;DHT22;2313;48.552;9.370;2023-04-07T10:10:19;19.00;68.50
4602;DHT22;2313;48.552;9.370;2023-04-07T10:12:45;19.10;70.50
4602;DHT22;2313;48.552;9.370;2023-04-07T10:15:12;18.60;67.70
4602;DHT22;2313;48.552;9.370;2023-04-07T10:17:44;17.60;65.00
4602;DHT22;2313;48.552;9.370;2023-04-07T10:20:12;17.20;70.60
4602;DHT22;2313;48.552;9.370;2023-04-07T10:22:40;16.90;69.50
4602;DHT22;2313;48.552;9.370;2023-04-07T10:25:13;17.50;71.00
4602;DHT22;2313;48.552;9.370;2023-04-07T10:27:48;18.30;71.90
4602;DHT22;2313;48.552;9.370;2023-04-07T10:30:30;18.90;70.40
4602;DHT22;2313;48.552;9.370;2023-04-07T10:32:57;18.70;65.90
4602;DHT22;2313;48.552;9.370;2023-04-07T10:35:23;18.30;65.30
4602;DHT22;2313;48.552;9.370;2023-04-07T10:40:36;17.50;71.10
4602;DHT22;2313;48.552;9.370;2023-04-07T10:43:02;17.30;70.30
4602;DHT22;2313;48.552;9.370;2023-04-07T10:48:16;16.30;68.60
4602;DHT22;2313;48.552;9.370;2023-04-07T10:50:41;16.00;70.10
4602;DHT22;2313;48.552;9.370;2023-04-07T10:53:11;15.80;73.70
4602;DHT22;2313;48.552;9.370;2023-04-07T10:55:44;15.60;73.90
4602;DHT22;2313;48.552;9.370;2023-04-07T11:00:40;15.30;76.00
4602;DHT22;2313;48.552;9.370;2023-04-07T11:03:10;15.20;76.80
4602;DHT22;2313;48.552;9.370;2023-04-07T11:05:39;14.90;74.30
4602;DHT22;2313;48.552;9.370;2023-04-07T11:08:05;14.90;76.00
4602;DHT22;2313;48.552;9.370;2023-04-07T11:10:33;14.90;76.90
4602;DHT22;2313;48.552;9.370;2023-04-07T11:13:03;14.90;78.20
4602;DHT22;2313;48.552;9.370;2023-04-07T11:15:29;15.00;80.70
4602;DHT22;2313;48.552;9.370;2023-04-07T11:18:11;14.80;80.60
4602;DHT22;2313;48.552;9.370;2023-04-07T11:20:50;14.70;80.90
4602;DHT22;2313;48.552;9.370;2023-04-07T11:23:17;14.70;83.40
4602;DHT22;2313;48.552;9.370;2023-04-07T11:25:45;14.70;81.20
4602;DHT22;2313;48.552;9.370;2023-04-07T11:28:12;14.70;81.70
4602;DHT22;2313;48.552;9.370;2023-04-07T11:30:43;14.60;82.50
4602;DHT22;2313;48.552;9.370;2023-04-07T11:33:13;14.40;83.30
4602;DHT22;2313;48.552;9.370;2023-04-07T11:35:49;14.50;82.70
4602;DHT22;2313;48.552;9.370;2023-04-07T11:38:16;14.30;82.70
4602;DHT22;2313;48.552;9.370;2023-04-07T11:40:42;14.40;85.50
4602;DHT22;2313;48.552;9.370;2023-04-07T11:43:24;14.30;84.40
4602;DHT22;2313;48.552;9.370;2023-04-07T11:48:37;14.40;83.90
4602;DHT22;2313;48.552;9.370;2023-04-07T11:51:04;14.30;83.50
4602;DHT22;2313;48.552;9.370;2023-04-07T11:53:32;14.00;84.60
4602;DHT22;2313;48.552;9.370;2023-04-07T11:56:03;14.00;87.10
4602;DHT22;2313;48.552;9.370;2023-04-07T11:58:29;14.00;87.10
4602;DHT22;2313;48.552;9.370;2023-04-07T12:00:56;14.00;85.50
4602;DHT22;2313;48.552;9.370;2023-04-07T12:03:22;14.00;87.70
4602;DHT22;2313;48.552;9.370;2023-04-07T12:05:48;14.00;87.80
4602;DHT22;2313;48.552;9.370;2023-04-07T12:08:13;13.80;87.20
4602;DHT22;2313;48.552;9.370;2023-04-07T12:10:43;14.00;88.90
4602;DHT22;2313;48.552;9.370;2023-04-07T12:13:12;14.00;87.70
4602;DHT22;2313;48.552;9.370;2023-04-07T12:15:38;14.00;89.10
4602;DHT22;2313;48.552;9.370;2023-04-07T12:18:03;13.90;88.40
4602;DHT22;2313;48.552;9.370;2023-04-07T12:20:30;13.80;89.40
4602;DHT22;2313;48.552;9.370;2023-04-07T12:22:56;13.80;90.10
4602;DHT22;2313;48.552;9.370;2023-04-07T12:25:22;13.70;90.20
4602;DHT22;2313;48.552;9.370;2023-04-07T12:27:48;13.60;90.70
4602;DHT22;2313;48.552;9.370;2023-04-07T12:30:13;13.40;88.50
4602;DHT22;2313;48.552;9.370;2023-04-07T12:32:39;13.20;85.50
4602;DHT22;2313;48.552;9.370;2023-04-07T12:35:05;13.00;86.60
4602;DHT22;2313;48.552;9.370;2023-04-07T12:37:31;12.70;85.00
4602;DHT22;2313;48.552;9.370;2023-04-07T12:39:57;12.40;87.80
4602;DHT22;2313;48.552;9.370;2023-04-07T12:42:23;12.30;90.40
4602;DHT22;2313;48.552;9.370;2023-04-07T12:44:49;12.10;91.80
4602;DHT22;2313;48.552;9.370;2023-04-07T12:47:14;12.00;93.30
4602;DHT22;2313;48.552;9.370;2023-04-07T12:49:41;11.80;93.60
4602;DHT22;2313;48.552;9.370;2023-04-07T12:52:06;11.70;94.60
4602;DHT22;2313;48.552;9.370;2023-04-07T12:54:32;11.60;99.20
4602;DHT22;2313;48.552;9.370;2023-04-07T12:56:57;11.30;99.90
4602;DHT22;2313;48.552;9.370;2023-04-07T12:59:24;11.10;99.90
4602;DHT22;2313;48.552;9.370;2023-04-07T13:01:50;10.90;99.90
4602;DHT22;2313;48.552;9.370;2023-04-07T13:04:16;10.80;99.90
4602;DHT22;2313;48.552;9.370;2023-04-07T13:06:42;10.90;99.90
4602;DHT22;2313;48.552;9.370;2023-04-07T13:09:08;10.80;99.90
4602;DHT22;2313;48.552;9.370;2023-04-07T13:11:33;10.60;99.90
4602;DHT22;2313;48.552;9.370;2023-04-07T13:14:01;10.60;99.90
4602;DHT22;2313;48.552;9.370;2023-04-07T13:16:27;10.50;99.90
4602;DHT22;2313;48.552;9.370;2023-04-07T13:18:52;10.50;99.90
4602;DHT22;2313;48.552;9.370;2023-04-07T13:21:18;10.30;99.90
4602;DHT22;2313;48.552;9.370;2023-04-07T13:23:44;10.30;99.90
4602;DHT22;2313;48.552;9.370;2023-04-07T13:26:10;10.30;99.90
4602;DHT22;2313;48.552;9.370;2023-04-07T13:28:36;10.30;99.90
4602;DHT22;2313;48.552;9.370;2023-04-07T13:31:02;10.30;99.90
4602;DHT22;2313;48.552;9.370;2023-04-07T13:33:28;10.40;99.90
4602;DHT22;2313;48.552;9.370;2023-04-07T13:35:53;10.40;99.90
4602;DHT22;2313;48.552;9.370;2023-04-07T13:38:19;10.40;99.90
4602;DHT22;2313;48.552;9.370;2023-04-07T13:40:44;10.60;99.90
4602;DHT22;2313;48.552;9.370;2023-04-07T13:43:13;10.70;99.90
4602;DHT22;2313;48.552;9.370;2023-04-07T13:45:39;11.00;99.90
4602;DHT22;2313;48.552;9.370;2023-04-07T13:48:05;11.10;99.90
4602;DHT22;2313;48.552;9.370;2023-04-07T13:50:31;11.30;99.90
4602;DHT22;2313;48.552;9.370;2023-04-07T13:52:56;11.60;99.90
4602;DHT22;2313;48.552;9.370;2023-04-07T13:55:22;11.90;99.90
4602;DHT22;2313;48.552;9.370;2023-04-07T13:57:48;12.50;99.90
4602;DHT22;2313;48.552;9.370;2023-04-07T14:00:14;13.00;99.90
4602;DHT22;2313;48.552;9.370;2023-04-07T14:02:39;13.40;99.90
4602;DHT22;2313;48.552;9.370;2023-04-07T14:05:05;13.80;99.90
4602;DHT22;2313;48.552;9.370;2023-04-07T14:07:31;14.10;99.90
4602;DHT22;2313;48.552;9.370;2023-04-07T14:09:57;14.00;99.90
4602;DHT22;2313;48.552;9.370;2023-04-07T14:12:23;14.10;99.90
4602;DHT22;2313;48.552;9.370;2023-04-07T14:14:48;14.10;99.90
4602;DHT22;2313;48.552;9.370;2023-04-07T14:17:16;14.30;99.90
4602;DHT22;2313;48.552;9.370;2023-04-07T14:19:42;14.10;99.90
4602;DHT22;2313;48.552;9.370;2023-04-07T14:22:09;14.30;99.90
4602;DHT22;2313;48.552;9.370;2023-04-07T14:24:34;14.50;99.90
4602;DHT22;2313;48.552;9.370;2023-04-07T14:27:00;14.40;99.90
4602;DHT22;2313;48.552;9.370;2023-04-07T14:29:28;14.20;99.90
4602;DHT22;2313;48.552;9.370;2023-04-07T14:31:53;14.20;99.90
4602;DHT22;2313;48.552;9.370;2023-04-07T14:34:19;14.00;99.90
4602;DHT22;2313;48.552;9.370;2023-04-07T14:36:55;13.80;99.90
4602;DHT22;2313;48.552;9.370;2023-04-07T14:39:22;13.70;99.90
4602;DHT22;2313;48.552;9.370;2023-04-07T14:41:48;13.50;99.90
4602;DHT22;2313;48.552;9.370;2023-04-07T14:44:14;13.50;99.90
4602;DHT22;2313;48.552;9.370;2023-04-07T14:46:40;13.40;99.90
4602;DHT22;2313;48.552;9.370;2023-04-07T14:49:07;13.30;99.90
4602;DHT22;2313;48.552;9.370;2023-04-07T14:51:32;13.20;99.90
4602;DHT22;2313;48.552;9.370;2023-04-07T14:53:58;13.20;99.90
4602;DHT22;2313;48.552;9.370;2023-04-07T14:56:24;13.10;99.90
4602;DHT22;2313;48.552;9.370;2023-04-07T14:58:50;12.90;99.90
4602;DHT22;2313;48.552;9.370;2023-04-07T15:01:17;13.00;99.90
4602;DHT22;2313;48.552;9.370;2023-04-07T15:03:43;12.90;99.90
4602;DHT22;2313;48.552;9.370;2023-04-07T15:06:10;13.00;99.90
4602;DHT22;2313;48.552;9.370;2023-04-07T15:08:36;13.00;99.90
4602;DHT22;2313;48.552;9.370;2023-04-07T15:11:06;13.00;99.90
4602;DHT22;2313;48.552;9.370;2023-04-07T15:13:32;12.90;99.90
4602;DHT22;2313;48.552;9.370;2023-04-07T15:16:11;12.90;99.90
4602;DHT22;2313;48.552;9.370;2023-04-07T15:18:39;12.90;99.90
4602;DHT22;2313;48.552;9.370;2023-04-07T15:21:06;12.90;99.90
4602;DHT22;2313;48.552;9.370;2023-04-07T15:23:32;12.90;99.90
4602;DHT22;2313;48.552;9.370;2023-04-07T15:25:58;12.90;99.90
4602;DHT22;2313;48.552;9.370;2023-04-07T15:28:23;13.20;99.90
4602;DHT22;2313;48.552;9.370;2023-04-07T15:30:49;13.40;99.90
4602;DHT22;2313;48.552;9.370;2023-04-07T15:33:15;13.50;98.60
4602;DHT22;2313;48.552;9.370;2023-04-07T15:35:42;13.50;96.50
4602;DHT22;2313;48.552;9.370;2023-04-07T15:38:08;13.60;98.00
4602;DHT22;2313;48.552;9.370;2023-04-07T15:40:37;13.40;98.00
4602;DHT22;2313;48.552;9.370;2023-04-07T15:43:03;13.40;99.50
4602;DHT22;2313;48.552;9.370;2023-04-07T15:45:29;13.40;99.90
4602;DHT22;2313;48.552;9.370;2023-04-07T15:47:54;13.30;97.90
4602;DHT22;2313;48.552;9.370;2023-04-07T15:50:20;13.20;97.80
4602;DHT22;2313;48.552;9.370;2023-04-07T15:52:46;13.20;99.50
4602;DHT22;2313;48.552;9.370;2023-04-07T15:55:11;13.20;96.20
4602;DHT22;2313;48.552;9.370;2023-04-07T15:57:37;13.40;98.00
4602;DHT22;2313;48.552;9.370;2023-04-07T16:00:03;13.40;97.10
4602;DHT22;2313;48.552;9.370;2023-04-07T16:02:29;13.50;95.40
4602;DHT22;2313;48.552;9.370;2023-04-07T16:04:55;13.50;94.60
4602;DHT22;2313;48.552;9.370;2023-04-07T16:07:20;13.60;95.10
4602;DHT22;2313;48.552;9.370;2023-04-07T16:09:46;13.70;93.70
4602;DHT22;2313;48.552;9.370;2023-04-07T16:12:12;13.70;94.70
4602;DHT22;2313;48.552;9.370;2023-04-07T16:14:37;13.70;92.80
4602;DHT22;2313;48.552;9.370;2023-04-07T16:17:03;13.80;92.60
4602;DHT22;2313;48.552;9.370;2023-04-07T16:19:28;13.80;92.30
4602;DHT22;2313;48.552;9.370;2023-04-07T16:21:54;13.80;93.20
4602;DHT22;2313;48.552;9.370;2023-04-07T16:24:20;13.70;92.70